sensor_id;sensor_type;location;lat;lon;timestamp;temperature;humidity
16929;DHT22;8581;47.334;11.190;2023-02-19T00:02:27;4.40;99.90
16929;DHT22;8581;47.334;11.190;2023-02-19T00:04:58;4.30;99.90
16929;DHT22;8581;47.334;11.190;2023-02-19T00:07:30;4.30;99.90
16929;DHT22;8581;47.334;11.190;2023-02-19T00:10:02;4.30;99.90
16929;DHT22;8581;47.334;11.190;2023-02-19T00:12:33;4.40;99.90
16929;DHT22;8581;47.334;11.190;2023-02-19T00:15:05;4.30;99.90
16929;DHT22;8581;47.334;11.190;2023-02-19T00:17:37;4.20;99.90
16929;DHT22;8581;47.334;11.190;2023-02-19T00:20:09;4.30;99.90
16929;DHT22;8581;47.334;11.190;2023-02-19T00:22:41;4.20;99.90
16929;DHT22;8581;47.334;11.190;2023-02-19T00:25:12;4.10;99.90
16929;DHT22;8581;47.334;11.190;2023-02-19T00:27:44;4.00;99.90
16929;DHT22;8581;47.334;11.190;2023-02-19T00:30:15;4.00;99.90
16929;DHT22;8581;47.334;11.190;2023-02-19T00:32:49;4.10;99.90
16929;DHT22;8581;47.334;11.190;2023-02-19T00:35:20;4.00;99.90
16929;DHT22;8581;47.334;11.190;2023-02-19T00:37:52;3.90;99.90
16929;DHT22;8581;47.334;11.190;2023-02-19T00:40:23;3.80;99.90
16929;DHT22;8581;47.334;11.190;2023-02-19T00:42:55;3.80;99.90
16929;DHT22;8581;47.334;11.190;2023-02-19T00:45:27;3.90;99.90
16929;DHT22;8581;47.334;11.190;2023-02-19T00:47:58;3.90;99.90
16929;DHT22;8581;47.334;11.190;2023-02-19T00:50:30;3.60;99.90
16929;DHT22;8581;47.334;11.190;2023-02-19T00:53:01;3.60;99.90
16929;DHT22;8581;47.334;11.190;2023-02-19T00:55:33;3.50;99.90
16929;DHT22;8581;47.334;11.190;2023-02-19T00:58:05;3.60;99.90
16929;DHT22;8581;47.334;11.190;2023-02-19T01:00:36;3.50;99.90
16929;DHT22;8581;47.334;11.190;2023-02-19T01:03:08;3.40;99.90
16929;DHT22;8581;47.334;11.190;2023-02-19T01:05:39;3.40;99.90
16929;DHT22;8581;47.334;11.190;2023-02-19T01:08:11;3.30;99.90
16929;DHT22;8581;47.334;11.190;2023-02-19T01:10:42;3.40;99.90
16929;DHT22;8581;47.334;11.190;2023-02-19T01:13:14;3.30;99.90
16929;DHT22;8581;47.334;11.190;2023-02-19T01:15:46;3.40;99.90
16929;DHT22;8581;47.334;11.190;2023-02-19T01:18:17;3.40;99.90
16929;DHT22;8581;47.334;11.190;2023-02-19T01:20:49;3.30;99.90
16929;DHT22;8581;47.334;11.190;2023-02-19T01:23:20;3.20;99.90
16929;DHT22;8581;47.334;11.190;2023-02-19T01:25:52;3.30;99.90
16929;DHT22;8581;47.334;11.190;2023-02-19T01:28:24;3.40;99.90
16929;DHT22;8581;47.334;11.190;2023-02-19T01:30:59;3.30;99.90
16929;DHT22;8581;47.334;11.190;2023-02-19T01:33:27;3.10;99.90
16929;DHT22;8581;47.334;11.190;2023-02-19T01:35:58;3.00;99.90
16929;DHT22;8581;47.334;11.190;2023-02-19T01:38:30;3.00;99.90
16929;DHT22;8581;47.334;11.190;2023-02-19T01:41:03;2.90;99.90
16929;DHT22;8581;47.334;11.190;2023-02-19T01:43:34;2.80;99.90
16929;DHT22;8581;47.334;11.190;2023-02-19T01:46:05;2.80;99.90
16929;DHT22;8581;47.334;11.190;2023-02-19T01:48:37;2.70;99.90
16929;DHT22;8581;47.334;11.190;2023-02-19T01:51:10;2.50;99.90
16929;DHT22;8581;47.334;11.190;2023-02-19T01:53:41;2.40;99.90
16929;DHT22;8581;47.334;11.190;2023-02-19T01:56:12;2.50;99.90
16929;DHT22;8581;47.334;11.190;2023-02-19T01:58:43;2.30;99.90
16929;DHT22;8581;47.334;11.190;2023-02-19T02:01:14;2.20;99.90
16929;DHT22;8581;47.334;11.190;2023-02-19T02:03:46;2.10;99.90
16929;DHT22;8581;47.334;11.190;2023-02-19T02:06:23;2.10;99.90
16929;DHT22;8581;47.334;11.190;2023-02-19T02:08:55;2.00;99.90
16929;DHT22;8581;47.334;11.190;2023-02-19T02:11:32;2.00;99.90
16929;DHT22;8581;47.334;11.190;2023-02-19T02:14:03;1.80;99.90
16929;DHT22;8581;47.334;11.190;2023-02-19T02:16:42;1.90;99.90
16929;DHT22;8581;47.334;11.190;2023-02-19T02:22:04;1.70;99.90
16929;DHT22;8581;47.334;11.190;2023-02-19T02:24:51;1.60;99.90
16929;DHT22;8581;47.334;11.190;2023-02-19T02:27:37;1.40;99.90
16929;DHT22;8581;47.334;11.190;2023-02-19T02:30:30;1.50;99.90
16929;DHT22;8581;47.334;11.190;2023-02-19T02:33:36;1.50;99.90
16929;DHT22;8581;47.334;11.190;2023-02-19T02:35:53;1.40;99.90
16929;DHT22;8581;47.334;11.190;2023-02-19T02:38:24;1.30;99.90
16929;DHT22;8581;47.334;11.190;2023-02-19T02:40:55;1.50;99.90
16929;DHT22;8581;47.334;11.190;2023-02-19T02:43:26;1.40;99.90
16929;DHT22;8581;47.334;11.190;2023-02-19T02:45:58;1.50;99.90
16929;DHT22;8581;47.334;11.190;2023-02-19T02:48:32;1.50;99.90
16929;DHT22;8581;47.334;11.190;2023-02-19T02:51:05;1.70;99.90
16929;DHT22;8581;47.334;11.190;2023-02-19T02:53:40;1.60;99.90
16929;DHT22;8581;47.334;11.190;2023-02-19T02:56:15;1.50;99.90
16929;DHT22;8581;47.334;11.190;2023-02-19T02:58:47;1.40;99.90
16929;DHT22;8581;47.334;11.190;2023-02-19T03:01:22;1.30;99.90
16929;DHT22;8581;47.334;11.190;2023-02-19T03:04:00;1.30;99.90
16929;DHT22;8581;47.334;11.190;2023-02-19T03:06:30;1.40;99.90
16929;DHT22;8581;47.334;11.190;2023-02-19T03:09:13;1.30;99.90
16929;DHT22;8581;47.334;11.190;2023-02-19T03:11:43;1.40;99.90
16929;DHT22;8581;47.334;11.190;2023-02-19T03:14:21;1.30;99.90
16929;DHT22;8581;47.334;11.190;2023-02-19T03:16:59;1.30;99.90
16929;DHT22;8581;47.334;11.190;2023-02-19T03:19:38;1.30;99.90
16929;DHT22;8581;47.334;11.190;2023-02-19T03:22:09;1.00;99.90
16929;DHT22;8581;47.334;11.190;2023-02-19T03:24:44;1.00;99.90
16929;DHT22;8581;47.334;11.190;2023-02-19T03:27:19;1.10;99.90
16929;DHT22;8581;47.334;11.190;2023-02-19T03:29:51;1.10;99.90
16929;DHT22;8581;47.334;11.190;2023-02-19T03:32:24;1.00;99.90
16929;DHT22;8581;47.334;11.190;2023-02-19T03:34:58;1.00;99.90
16929;DHT22;8581;47.334;11.190;2023-02-19T03:37:29;1.00;99.90
16929;DHT22;8581;47.334;11.190;2023-02-19T03:40:00;1.00;99.90
16929;DHT22;8581;47.334;11.190;2023-02-19T03:42:37;1.00;99.90
16929;DHT22;8581;47.334;11.190;2023-02-19T03:45:19;1.30;99.90
16929;DHT22;8581;47.334;11.190;2023-02-19T03:48:06;1.30;99.90
16929;DHT22;8581;47.334;11.190;2023-02-19T03:50:48;1.50;99.90
16929;DHT22;8581;47.334;11.190;2023-02-19T03:53:43;1.50;99.90
16929;DHT22;8581;47.334;11.190;2023-02-19T03:56:10;1.40;99.90
16929;DHT22;8581;47.334;11.190;2023-02-19T03:58:48;1.40;99.90
16929;DHT22;8581;47.334;11.190;2023-02-19T04:01:19;1.70;99.90
16929;DHT22;8581;47.334;11.190;2023-02-19T04:03:52;2.00;99.90
16929;DHT22;8581;47.334;11.190;2023-02-19T04:06:25;2.00;99.90
16929;DHT22;8581;47.334;11.190;2023-02-19T04:08:55;2.50;99.90
16929;DHT22;8581;47.334;11.190;2023-02-19T04:11:26;2.60;99.90
16929;DHT22;8581;47.334;11.190;2023-02-19T04:14:03;2.70;99.90
16929;DHT22;8581;47.334;11.190;2023-02-19T04:16:32;2.70;99.90
16929;DHT22;8581;47.334;11.190;2023-02-19T04:19:06;2.70;99.90
16929;DHT22;8581;47.334;11.190;2023-02-19T04:21:35;2.60;99.90
16929;DHT22;8581;47.334;11.190;2023-02-19T04:24:10;2.70;99.90
16929;DHT22;8581;47.334;11.190;2023-02-19T04:26:39;2.70;99.90
16929;DHT22;8581;47.334;11.190;2023-02-19T04:29:11;2.90;99.90
16929;DHT22;8581;47.334;11.190;2023-02-19T04:31:42;2.90;99.90
16929;DHT22;8581;47.334;11.190;2023-02-19T04:34:14;3.00;99.90
16929;DHT22;8581;47.334;11.190;2023-02-19T04:36:45;3.30;99.90
16929;DHT22;8581;47.334;11.190;2023-02-19T04:39:17;3.40;99.90
16929;DHT22;8581;47.334;11.190;2023-02-19T04:41:49;3.30;99.90
16929;DHT22;8581;47.334;11.190;2023-02-19T04:44:20;3.20;99.90
16929;DHT22;8581;47.334;11.190;2023-02-19T04:46:52;3.30;99.90
16929;DHT22;8581;47.334;11.190;2023-02-19T04:49:23;3.40;99.90
16929;DHT22;8581;47.334;11.190;2023-02-19T04:51:55;3.30;99.90
16929;DHT22;8581;47.334;11.190;2023-02-19T04:54:27;3.10;99.90
16929;DHT22;8581;47.334;11.190;2023-02-19T04:56:58;3.00;99.90
16929;DHT22;8581;47.334;11.190;2023-02-19T04:59:30;3.00;99.90
16929;DHT22;8581;47.334;11.190;2023-02-19T05:02:01;3.10;99.90
16929;DHT22;8581;47.334;11.190;2023-02-19T05:04:33;2.90;99.90
16929;DHT22;8581;47.334;11.190;2023-02-19T05:07:05;3.00;99.90
16929;DHT22;8581;47.334;11.190;2023-02-19T05:09:36;2.90;99.90
16929;DHT22;8581;47.334;11.190;2023-02-19T05:12:08;2.70;99.90
16929;DHT22;8581;47.334;11.190;2023-02-19T05:14:39;2.70;99.90
16929;DHT22;8581;47.334;11.190;2023-02-19T05:17:11;2.50;99.90
16929;DHT22;8581;47.334;11.190;2023-02-19T05:19:43;2.60;99.90
16929;DHT22;8581;47.334;11.190;2023-02-19T05:22:14;2.80;99.90
16929;DHT22;8581;47.334;11.190;2023-02-19T05:24:46;2.80;99.90
16929;DHT22;8581;47.334;11.190;2023-02-19T05:27:17;2.90;99.90
16929;DHT22;8581;47.334;11.190;2023-02-19T05:29:51;3.00;99.90
16929;DHT22;8581;47.334;11.190;2023-02-19T05:32:22;2.80;99.90
16929;DHT22;8581;47.334;11.190;2023-02-19T05:34:54;2.80;99.90
16929;DHT22;8581;47.334;11.190;2023-02-19T05:37:26;2.70;99.90
16929;DHT22;8581;47.334;11.190;2023-02-19T05:39:57;2.80;99.90
16929;DHT22;8581;47.334;11.190;2023-02-19T05:42:29;2.80;99.90
16929;DHT22;8581;47.334;11.190;2023-02-19T05:45:00;2.90;99.90
16929;DHT22;8581;47.334;11.190;2023-02-19T05:47:32;3.00;99.90
16929;DHT22;8581;47.334;11.190;2023-02-19T05:50:04;2.90;99.90
16929;DHT22;8581;47.334;11.190;2023-02-19T05:52:36;3.20;99.90
16929;DHT22;8581;47.334;11.190;2023-02-19T05:55:08;3.60;99.90
16929;DHT22;8581;47.334;11.190;2023-02-19T05:57:41;3.90;99.90
16929;DHT22;8581;47.334;11.190;2023-02-19T06:00:14;4.20;99.90
16929;DHT22;8581;47.334;11.190;2023-02-19T06:02:45;4.30;99.90
16929;DHT22;8581;47.334;11.190;2023-02-19T06:05:16;4.70;99.90
16929;DHT22;8581;47.334;11.190;2023-02-19T06:07:47;5.10;99.90
16929;DHT22;8581;47.334;11.190;2023-02-19T06:10:19;5.20;99.90
16929;DHT22;8581;47.334;11.190;2023-02-19T06:12:52;5.20;99.90
16929;DHT22;8581;47.334;11.190;2023-02-19T06:15:23;5.20;99.90
16929;DHT22;8581;47.334;11.190;2023-02-19T06:17:55;5.20;99.90
16929;DHT22;8581;47.334;11.190;2023-02-19T06:20:27;5.20;99.90
16929;DHT22;8581;47.334;11.190;2023-02-19T06:22:58;5.10;99.90
16929;DHT22;8581;47.334;11.190;2023-02-19T06:25:30;5.20;99.90
16929;DHT22;8581;47.334;11.190;2023-02-19T06:28:01;5.20;99.90
16929;DHT22;8581;47.334;11.190;2023-02-19T06:30:33;5.30;99.90
16929;DHT22;8581;47.334;11.190;2023-02-19T06:33:04;5.20;99.90
16929;DHT22;8581;47.334;11.190;2023-02-19T06:35:36;5.20;99.90
16929;DHT22;8581;47.334;11.190;2023-02-19T06:38:07;5.50;99.90
16929;DHT22;8581;47.334;11.190;2023-02-19T06:40:39;6.00;99.90
16929;DHT22;8581;47.334;11.190;2023-02-19T06:43:11;6.30;99.90
16929;DHT22;8581;47.334;11.190;2023-02-19T06:45:42;6.40;99.90
16929;DHT22;8581;47.334;11.190;2023-02-19T06:48:14;6.20;99.90
16929;DHT22;8581;47.334;11.190;2023-02-19T06:50:46;6.30;99.90
16929;DHT22;8581;47.334;11.190;2023-02-19T06:53:17;6.20;99.90
16929;DHT22;8581;47.334;11.190;2023-02-19T06:55:59;6.30;99.90
16929;DHT22;8581;47.334;11.190;2023-02-19T06:58:30;6.30;99.90
16929;DHT22;8581;47.334;11.190;2023-02-19T07:01:01;6.30;99.90
16929;DHT22;8581;47.334;11.190;2023-02-19T07:03:33;6.40;99.90
16929;DHT22;8581;47.334;11.190;2023-02-19T07:06:04;6.40;99.90
16929;DHT22;8581;47.334;11.190;2023-02-19T07:08:36;6.30;99.90
16929;DHT22;8581;47.334;11.190;2023-02-19T07:11:08;6.50;99.90
16929;DHT22;8581;47.334;11.190;2023-02-19T07:13:39;6.50;99.90
16929;DHT22;8581;47.334;11.190;2023-02-19T07:16:11;6.90;99.90
16929;DHT22;8581;47.334;11.190;2023-02-19T07:18:43;6.90;99.90
16929;DHT22;8581;47.334;11.190;2023-02-19T07:21:14;7.30;99.90
16929;DHT22;8581;47.334;11.190;2023-02-19T07:23:46;7.10;99.90
16929;DHT22;8581;47.334;11.190;2023-02-19T07:26:18;7.30;99.90
16929;DHT22;8581;47.334;11.190;2023-02-19T07:28:50;7.50;99.90
16929;DHT22;8581;47.334;11.190;2023-02-19T07:31:21;7.70;99.90
16929;DHT22;8581;47.334;11.190;2023-02-19T07:33:52;7.70;99.90
16929;DHT22;8581;47.334;11.190;2023-02-19T07:36:24;7.60;99.90
16929;DHT22;8581;47.334;11.190;2023-02-19T07:38:56;7.50;99.90
16929;DHT22;8581;47.334;11.190;2023-02-19T07:41:27;7.30;99.90
16929;DHT22;8581;47.334;11.190;2023-02-19T07:43:59;7.30;99.90
16929;DHT22;8581;47.334;11.190;2023-02-19T07:46:30;7.40;99.90
16929;DHT22;8581;47.334;11.190;2023-02-19T07:49:02;7.20;99.90
16929;DHT22;8581;47.334;11.190;2023-02-19T07:51:33;7.30;99.90
16929;DHT22;8581;47.334;11.190;2023-02-19T07:54:05;7.50;99.90
16929;DHT22;8581;47.334;11.190;2023-02-19T07:56:36;7.70;99.90
16929;DHT22;8581;47.334;11.190;2023-02-19T07:59:08;7.60;99.90
16929;DHT22;8581;47.334;11.190;2023-02-19T08:01:40;7.60;99.90
16929;DHT22;8581;47.334;11.190;2023-02-19T08:04:17;7.60;99.90
16929;DHT22;8581;47.334;11.190;2023-02-19T08:06:48;7.50;99.90
16929;DHT22;8581;47.334;11.190;2023-02-19T08:09:20;7.40;99.90
16929;DHT22;8581;47.334;11.190;2023-02-19T08:11:52;7.50;99.90
16929;DHT22;8581;47.334;11.190;2023-02-19T08:14:29;7.70;99.90
16929;DHT22;8581;47.334;11.190;2023-02-19T08:17:01;7.80;99.90
16929;DHT22;8581;47.334;11.190;2023-02-19T08:19:32;8.00;99.90
16929;DHT22;8581;47.334;11.190;2023-02-19T08:22:04;7.90;99.90
16929;DHT22;8581;47.334;11.190;2023-02-19T08:24:35;8.20;99.90
16929;DHT22;8581;47.334;11.190;2023-02-19T08:27:07;8.40;99.90
16929;DHT22;8581;47.334;11.190;2023-02-19T08:29:39;8.70;99.90
16929;DHT22;8581;47.334;11.190;2023-02-19T08:32:10;9.00;99.90
16929;DHT22;8581;47.334;11.190;2023-02-19T08:34:42;9.50;99.90
16929;DHT22;8581;47.334;11.190;2023-02-19T08:37:13;9.70;99.90
16929;DHT22;8581;47.334;11.190;2023-02-19T08:39:45;9.60;99.90
16929;DHT22;8581;47.334;11.190;2023-02-19T08:42:17;9.60;99.90
16929;DHT22;8581;47.334;11.190;2023-02-19T08:44:48;9.80;99.90
16929;DHT22;8581;47.334;11.190;2023-02-19T08:47:20;10.00;99.90
16929;DHT22;8581;47.334;11.190;2023-02-19T08:49:51;10.10;99.90
16929;DHT22;8581;47.334;11.190;2023-02-19T08:52:23;10.30;99.90
16929;DHT22;8581;47.334;11.190;2023-02-19T08:54:54;10.10;99.90
16929;DHT22;8581;47.334;11.190;2023-02-19T08:57:26;10.10;99.90
16929;DHT22;8581;47.334;11.190;2023-02-19T08:59:58;10.50;99.90
16929;DHT22;8581;47.334;11.190;2023-02-19T09:02:29;10.40;99.90
16929;DHT22;8581;47.334;11.190;2023-02-19T09:05:01;10.50;99.90
16929;DHT22;8581;47.334;11.190;2023-02-19T09:07:32;10.60;99.90
16929;DHT22;8581;47.334;11.190;2023-02-19T09:10:04;10.70;99.90
16929;DHT22;8581;47.334;11.190;2023-02-19T09:12:36;10.90;99.90
16929;DHT22;8581;47.334;11.190;2023-02-19T09:15:08;11.00;99.90
16929;DHT22;8581;47.334;11.190;2023-02-19T09:17:39;11.00;99.90
16929;DHT22;8581;47.334;11.190;2023-02-19T09:20:11;10.40;99.90
16929;DHT22;8581;47.334;11.190;2023-02-19T09:22:43;10.40;99.90
16929;DHT22;8581;47.334;11.190;2023-02-19T09:25:14;10.20;99.90
16929;DHT22;8581;47.334;11.190;2023-02-19T09:27:46;10.00;99.90
16929;DHT22;8581;47.334;11.190;2023-02-19T09:30:17;10.00;99.90
16929;DHT22;8581;47.334;11.190;2023-02-19T09:32:49;10.00;99.90
16929;DHT22;8581;47.334;11.190;2023-02-19T09:35:21;9.90;99.90
16929;DHT22;8581;47.334;11.190;2023-02-19T09:37:52;10.00;99.90
16929;DHT22;8581;47.334;11.190;2023-02-19T09:40:24;10.30;99.90
16929;DHT22;8581;47.334;11.190;2023-02-19T09:42:55;10.20;99.90
16929;DHT22;8581;47.334;11.190;2023-02-19T09:45:27;10.20;99.90
16929;DHT22;8581;47.334;11.190;2023-02-19T09:47:59;10.20;99.90
16929;DHT22;8581;47.334;11.190;2023-02-19T09:50:33;10.60;99.90
16929;DHT22;8581;47.334;11.190;2023-02-19T09:53:05;11.10;99.90
16929;DHT22;8581;47.334;11.190;2023-02-19T09:55:37;11.20;99.90
16929;DHT22;8581;47.334;11.190;2023-02-19T09:58:23;11.00;99.90
16929;DHT22;8581;47.334;11.190;2023-02-19T10:00:56;10.70;99.90
16929;DHT22;8581;47.334;11.190;2023-02-19T10:03:28;10.80;99.90
16929;DHT22;8581;47.334;11.190;2023-02-19T10:06:01;10.70;99.90
16929;DHT22;8581;47.334;11.190;2023-02-19T10:08:32;10.20;99.90
16929;DHT22;8581;47.334;11.190;2023-02-19T10:11:03;10.30;99.90
16929;DHT22;8581;47.334;11.190;2023-02-19T10:13:36;10.10;99.90
16929;DHT22;8581;47.334;11.190;2023-02-19T10:16:08;9.80;99.90
16929;DHT22;8581;47.334;11.190;2023-02-19T10:18:39;9.40;99.90
16929;DHT22;8581;47.334;11.190;2023-02-19T10:21:11;9.70;99.90
16929;DHT22;8581;47.334;11.190;2023-02-19T10:23:41;10.20;99.90
16929;DHT22;8581;47.334;11.190;2023-02-19T10:26:13;10.50;99.90
16929;DHT22;8581;47.334;11.190;2023-02-19T10:28:44;10.60;99.90
16929;DHT22;8581;47.334;11.190;2023-02-19T10:31:18;10.80;99.90
16929;DHT22;8581;47.334;11.190;2023-02-19T10:33:51;11.20;99.90
16929;DHT22;8581;47.334;11.190;2023-02-19T10:36:37;11.30;99.90
16929;DHT22;8581;47.334;11.190;2023-02-19T10:39:28;11.70;99.90
16929;DHT22;8581;47.334;11.190;2023-02-19T10:41:55;12.00;99.90
16929;DHT22;8581;47.334;11.190;2023-02-19T10:44:27;12.40;99.90
16929;DHT22;8581;47.334;11.190;2023-02-19T10:46:58;12.80;99.90
16929;DHT22;8581;47.334;11.190;2023-02-19T10:49:35;12.50;99.90
16929;DHT22;8581;47.334;11.190;2023-02-19T10:52:13;12.80;99.90
16929;DHT22;8581;47.334;11.190;2023-02-19T10:54:50;13.40;99.90
16929;DHT22;8581;47.334;11.190;2023-02-19T10:57:24;13.30;99.90
16929;DHT22;8581;47.334;11.190;2023-02-19T11:00:00;13.90;99.90
16929;DHT22;8581;47.334;11.190;2023-02-19T11:02:32;13.60;99.90
16929;DHT22;8581;47.334;11.190;2023-02-19T11:05:16;13.50;99.90
16929;DHT22;8581;47.334;11.190;2023-02-19T11:07:51;13.60;99.90
16929;DHT22;8581;47.334;11.190;2023-02-19T11:10:27;13.90;99.90
16929;DHT22;8581;47.334;11.190;2023-02-19T11:12:59;14.40;99.90
16929;DHT22;8581;47.334;11.190;2023-02-19T11:15:31;14.60;99.90
16929;DHT22;8581;47.334;11.190;2023-02-19T11:18:04;15.40;99.60
16929;DHT22;8581;47.334;11.190;2023-02-19T11:20:54;15.00;99.90
16929;DHT22;8581;47.334;11.190;2023-02-19T11:23:35;14.40;99.90
16929;DHT22;8581;47.334;11.190;2023-02-19T11:26:12;13.90;99.90
16929;DHT22;8581;47.334;11.190;2023-02-19T11:28:38;14.00;99.90
16929;DHT22;8581;47.334;11.190;2023-02-19T11:31:18;14.30;99.80
16929;DHT22;8581;47.334;11.190;2023-02-19T11:33:53;14.70;99.90
16929;DHT22;8581;47.334;11.190;2023-02-19T11:36:27;15.00;99.20
16929;DHT22;8581;47.334;11.190;2023-02-19T11:38:59;15.70;98.50
16929;DHT22;8581;47.334;11.190;2023-02-19T11:41:43;16.40;96.80
16929;DHT22;8581;47.334;11.190;2023-02-19T11:44:13;15.50;97.30
16929;DHT22;8581;47.334;11.190;2023-02-19T11:49:42;15.50;97.70
16929;DHT22;8581;47.334;11.190;2023-02-19T11:52:18;14.20;98.30
16929;DHT22;8581;47.334;11.190;2023-02-19T11:54:50;13.80;99.70
16929;DHT22;8581;47.334;11.190;2023-02-19T11:57:44;14.70;98.30
16929;DHT22;8581;47.334;11.190;2023-02-19T12:00:29;15.60;97.20
16929;DHT22;8581;47.334;11.190;2023-02-19T12:05:58;15.70;96.70
16929;DHT22;8581;47.334;11.190;2023-02-19T12:08:40;15.20;95.50
16929;DHT22;8581;47.334;11.190;2023-02-19T12:14:44;16.60;95.40
16929;DHT22;8581;47.334;11.190;2023-02-19T12:17:01;17.10;94.10
16929;DHT22;8581;47.334;11.190;2023-02-19T12:22:21;16.00;94.20
16929;DHT22;8581;47.334;11.190;2023-02-19T12:24:57;15.70;94.90
16929;DHT22;8581;47.334;11.190;2023-02-19T12:27:33;16.50;94.30
16929;DHT22;8581;47.334;11.190;2023-02-19T12:30:17;17.10;92.80
16929;DHT22;8581;47.334;11.190;2023-02-19T12:32:50;15.90;93.10
16929;DHT22;8581;47.334;11.190;2023-02-19T12:35:27;16.60;92.20
16929;DHT22;8581;47.334;11.190;2023-02-19T12:40:42;17.60;90.40
16929;DHT22;8581;47.334;11.190;2023-02-19T12:43:18;17.20;91.80
16929;DHT22;8581;47.334;11.190;2023-02-19T12:46:07;16.30;91.70
16929;DHT22;8581;47.334;11.190;2023-02-19T12:48:45;16.50;91.50
16929;DHT22;8581;47.334;11.190;2023-02-19T12:51:20;17.10;91.80
16929;DHT22;8581;47.334;11.190;2023-02-19T12:53:53;18.80;90.10
16929;DHT22;8581;47.334;11.190;2023-02-19T12:56:29;19.60;85.80
16929;DHT22;8581;47.334;11.190;2023-02-19T12:59:03;19.10;82.70
16929;DHT22;8581;47.334;11.190;2023-02-19T13:01:34;19.10;82.90
16929;DHT22;8581;47.334;11.190;2023-02-19T13:07:03;18.10;85.10
16929;DHT22;8581;47.334;11.190;2023-02-19T13:09:38;16.00;89.00
16929;DHT22;8581;47.334;11.190;2023-02-19T13:12:11;14.50;91.10
16929;DHT22;8581;47.334;11.190;2023-02-19T13:14:43;14.10;91.80
16929;DHT22;8581;47.334;11.190;2023-02-19T13:17:18;13.70;92.30
16929;DHT22;8581;47.334;11.190;2023-02-19T13:19:49;12.70;93.50
16929;DHT22;8581;47.334;11.190;2023-02-19T13:22:23;11.90;93.60
16929;DHT22;8581;47.334;11.190;2023-02-19T13:24:58;12.30;94.50
16929;DHT22;8581;47.334;11.190;2023-02-19T13:27:41;12.40;93.70
16929;DHT22;8581;47.334;11.190;2023-02-19T13:32:54;12.50;94.10
16929;DHT22;8581;47.334;11.190;2023-02-19T13:35:30;13.50;92.60
16929;DHT22;8581;47.334;11.190;2023-02-19T13:37:59;12.90;92.90
16929;DHT22;8581;47.334;11.190;2023-02-19T13:40:31;12.20;94.30
16929;DHT22;8581;47.334;11.190;2023-02-19T13:43:04;11.10;95.30
16929;DHT22;8581;47.334;11.190;2023-02-19T13:45:39;11.30;95.40
16929;DHT22;8581;47.334;11.190;2023-02-19T13:48:29;11.00;95.90
16929;DHT22;8581;47.334;11.190;2023-02-19T13:53:57;11.10;96.20
16929;DHT22;8581;47.334;11.190;2023-02-19T13:56:37;11.00;95.50
16929;DHT22;8581;47.334;11.190;2023-02-19T13:59:33;10.60;96.20
16929;DHT22;8581;47.334;11.190;2023-02-19T14:02:09;10.10;97.50
16929;DHT22;8581;47.334;11.190;2023-02-19T14:04:43;10.10;97.30
16929;DHT22;8581;47.334;11.190;2023-02-19T14:07:33;10.00;98.10
16929;DHT22;8581;47.334;11.190;2023-02-19T14:10:07;10.30;98.20
16929;DHT22;8581;47.334;11.190;2023-02-19T14:12:36;11.20;96.80
16929;DHT22;8581;47.334;11.190;2023-02-19T14:17:51;10.90;97.10
16929;DHT22;8581;47.334;11.190;2023-02-19T14:20:41;11.30;96.60
16929;DHT22;8581;47.334;11.190;2023-02-19T14:23:14;11.70;96.90
16929;DHT22;8581;47.334;11.190;2023-02-19T14:25:47;13.00;94.50
16929;DHT22;8581;47.334;11.190;2023-02-19T14:28:39;12.60;95.00
16929;DHT22;8581;47.334;11.190;2023-02-19T14:31:16;11.00;96.90
16929;DHT22;8581;47.334;11.190;2023-02-19T14:33:49;11.30;97.40
16929;DHT22;8581;47.334;11.190;2023-02-19T14:36:56;12.40;96.40
16929;DHT22;8581;47.334;11.190;2023-02-19T14:39:20;13.20;94.10
16929;DHT22;8581;47.334;11.190;2023-02-19T14:41:57;12.70;95.60
16929;DHT22;8581;47.334;11.190;2023-02-19T14:44:29;14.40;94.50
16929;DHT22;8581;47.334;11.190;2023-02-19T14:47:02;14.80;93.70
16929;DHT22;8581;47.334;11.190;2023-02-19T14:49:41;17.30;91.60
16929;DHT22;8581;47.334;11.190;2023-02-19T14:52:35;17.50;89.80
16929;DHT22;8581;47.334;11.190;2023-02-19T14:55:13;14.50;93.20
16929;DHT22;8581;47.334;11.190;2023-02-19T14:57:42;14.30;93.70
16929;DHT22;8581;47.334;11.190;2023-02-19T15:00:23;13.70;93.10
16929;DHT22;8581;47.334;11.190;2023-02-19T15:02:54;13.10;94.50
16929;DHT22;8581;47.334;11.190;2023-02-19T15:05:27;11.70;95.80
16929;DHT22;8581;47.334;11.190;2023-02-19T15:07:58;11.40;96.70
16929;DHT22;8581;47.334;11.190;2023-02-19T15:10:29;11.70;96.50
16929;DHT22;8581;47.334;11.190;2023-02-19T15:13:02;11.90;95.90
16929;DHT22;8581;47.334;11.190;2023-02-19T15:15:34;13.00;94.90
16929;DHT22;8581;47.334;11.190;2023-02-19T15:18:04;13.40;94.10
16929;DHT22;8581;47.334;11.190;2023-02-19T15:20:36;14.50;93.30
16929;DHT22;8581;47.334;11.190;2023-02-19T15:23:07;15.90;92.10
16929;DHT22;8581;47.334;11.190;2023-02-19T15:25:39;16.90;90.30
16929;DHT22;8581;47.334;11.190;2023-02-19T15:28:20;16.40;90.00
16929;DHT22;8581;47.334;11.190;2023-02-19T15:31:12;16.00;91.10
16929;DHT22;8581;47.334;11.190;2023-02-19T15:33:48;15.10;91.30
16929;DHT22;8581;47.334;11.190;2023-02-19T15:36:23;14.30;92.80
16929;DHT22;8581;47.334;11.190;2023-02-19T15:38:56;13.70;92.70
16929;DHT22;8581;47.334;11.190;2023-02-19T15:41:28;12.90;93.20
16929;DHT22;8581;47.334;11.190;2023-02-19T15:44:07;13.50;93.50
16929;DHT22;8581;47.334;11.190;2023-02-19T15:46:34;14.60;91.80
16929;DHT22;8581;47.334;11.190;2023-02-19T15:49:11;14.10;92.10
16929;DHT22;8581;47.334;11.190;2023-02-19T15:51:41;13.90;92.30
16929;DHT22;8581;47.334;11.190;2023-02-19T15:54:15;13.60;93.30
16929;DHT22;8581;47.334;11.190;2023-02-19T15:56:45;13.40;92.90
16929;DHT22;8581;47.334;11.190;2023-02-19T15:59:21;12.80;93.80
16929;DHT22;8581;47.334;11.190;2023-02-19T16:01:50;13.60;92.80
16929;DHT22;8581;47.334;11.190;2023-02-19T16:04:22;13.60;91.80
16929;DHT22;8581;47.334;11.190;2023-02-19T16:06:56;12.90;92.90
16929;DHT22;8581;47.334;11.190;2023-02-19T16:09:28;12.20;93.70
16929;DHT22;8581;47.334;11.190;2023-02-19T16:11:59;10.80;95.40
16929;DHT22;8581;47.334;11.190;2023-02-19T16:14:35;9.90;96.70
16929;DHT22;8581;47.334;11.190;2023-02-19T16:17:22;9.60;97.90
16929;DHT22;8581;47.334;11.190;2023-02-19T16:19:55;9.40;98.70
16929;DHT22;8581;47.334;11.190;2023-02-19T16:22:27;9.00;99.40
16929;DHT22;8581;47.334;11.190;2023-02-19T16:24:59;8.40;99.90
16929;DHT22;8581;47.334;11.190;2023-02-19T16:27:31;8.30;99.90
16929;DHT22;8581;47.334;11.190;2023-02-19T16:30:06;8.40;99.90
16929;DHT22;8581;47.334;11.190;2023-02-19T16:32:34;8.00;99.90
16929;DHT22;8581;47.334;11.190;2023-02-19T16:35:33;7.90;99.90
16929;DHT22;8581;47.334;11.190;2023-02-19T16:37:38;7.80;99.90
16929;DHT22;8581;47.334;11.190;2023-02-19T16:40:44;7.70;99.90
16929;DHT22;8581;47.334;11.190;2023-02-19T16:43:28;7.60;99.90
16929;DHT22;8581;47.334;11.190;2023-02-19T16:45:58;7.30;99.90
16929;DHT22;8581;47.334;11.190;2023-02-19T16:48:30;7.10;99.90
16929;DHT22;8581;47.334;11.190;2023-02-19T16:51:03;6.90;99.90